Time;durP1;ratioP1;P1;durP2;ratioP2;P2;SDS_P1;SDS_P2;PMS_P1;PMS_P2;Temp;Humidity;BMP_temperature;BMP_pressure;BME280_temperature;BME280_humidity;BME280_pressure;Samples;Min_cycle;Max_cycle;Signal;HPM_P1;HPM_P2
2022/11/28 00:01:40;;;;;;;0.10;0.10;;;;;;;4.18;100.00;98521.09;4939376;28;20297;-61
2022/11/28 00:04:08;;;;;;;0.00;0.00;;;;;;;4.19;100.00;98521.00;4937343;28;20229;-61
2022/11/28 00:06:37;;;;;;;0.00;0.00;;;;;;;4.21;100.00;98528.63;4928271;28;20253;-60
2022/11/28 00:09:04;;;;;;;0.00;0.00;;;;;;;4.17;100.00;98527.19;4932962;28;20242;-60
2022/11/28 00:11:33;;;;;;;0.10;0.10;;;;;;;4.14;100.00;98529.06;4938262;28;20234;-60
2022/11/28 00:13:59;;;;;;;0.00;0.00;;;;;;;4.18;100.00;98534.84;4938257;28;20583;-60
2022/11/28 00:16:26;;;;;;;0.00;0.00;;;;;;;4.22;100.00;98536.28;4919165;28;20264;-60
2022/11/28 00:18:54;;;;;;;0.00;0.00;;;;;;;4.23;100.00;98527.59;4938808;28;20243;-60
2022/11/28 00:21:23;;;;;;;0.00;0.00;;;;;;;4.22;100.00;98527.69;4934014;28;20238;-59
2022/11/28 00:23:49;;;;;;;0.03;0.03;;;;;;;4.24;100.00;98513.69;4942048;28;20251;-59
2022/11/28 00:26:19;;;;;;;0.00;0.00;;;;;;;4.26;100.00;98517.00;4932686;28;20242;-60
2022/11/28 00:28:46;;;;;;;0.00;0.00;;;;;;;4.26;100.00;98511.00;4897152;28;20275;-59
2022/11/28 00:31:13;;;;;;;0.00;0.00;;;;;;;4.29;100.00;98496.09;4900862;28;20614;-59
2022/11/28 00:33:40;;;;;;;0.10;0.10;;;;;;;4.32;100.00;98494.22;4943637;28;20230;-60
2022/11/28 00:36:07;;;;;;;0.00;0.00;;;;;;;4.33;100.00;98488.13;4944980;28;20296;-60
2022/11/28 00:38:35;;;;;;;0.00;0.00;;;;;;;4.33;100.00;98478.63;4943269;28;20248;-60
2022/11/28 00:41:04;;;;;;;0.00;0.00;;;;;;;4.34;100.00;98472.50;4946422;28;20280;-59
2022/11/28 00:43:31;;;;;;;0.00;0.00;;;;;;;4.35;100.00;98476.75;4943302;28;20691;-60
2022/11/28 00:45:58;;;;;;;0.00;0.00;;;;;;;4.39;100.00;98475.56;4947968;28;20289;-60
2022/11/28 00:48:25;;;;;;;0.00;0.00;;;;;;;4.39;100.00;98473.00;4945673;28;20234;-60
2022/11/28 00:50:52;;;;;;;0.00;0.00;;;;;;;4.42;100.00;98484.84;4947790;28;20285;-59
2022/11/28 00:53:18;;;;;;;0.10;0.10;;;;;;;4.45;100.00;98497.53;4944392;28;20772;-60
2022/11/28 00:55:47;;;;;;;0.00;0.00;;;;;;;4.48;100.00;98491.34;4946221;28;20242;-59
2022/11/28 00:58:13;;;;;;;0.00;0.00;;;;;;;4.49;100.00;98477.47;4947805;28;20243;-60
2022/11/28 01:00:40;;;;;;;0.00;0.00;;;;;;;4.53;100.00;98478.88;4944374;28;20703;-60
2022/11/28 01:03:06;;;;;;;0.10;0.10;;;;;;;4.52;100.00;98480.63;4947326;28;20218;-60
2022/11/28 01:05:33;;;;;;;0.00;0.00;;;;;;;4.52;100.00;98490.16;4943663;28;20720;-60
2022/11/28 01:08:00;;;;;;;0.00;0.00;;;;;;;4.51;100.00;98499.66;4947785;28;20788;-60
2022/11/28 01:10:26;;;;;;;0.03;0.03;;;;;;;4.51;100.00;98502.25;4942930;28;20254;-60
2022/11/28 01:12:54;;;;;;;0.00;0.00;;;;;;;4.52;100.00;98501.31;4946662;28;20717;-60
2022/11/28 01:15:21;;;;;;;0.00;0.00;;;;;;;4.54;100.00;98501.22;4944041;28;20266;-58
2022/11/28 01:17:47;;;;;;;0.00;0.00;;;;;;;4.54;100.00;98504.59;4946755;28;20292;-60
2022/11/28 01:20:14;;;;;;;0.10;0.10;;;;;;;4.49;100.00;98498.97;4946053;28;20750;-60
2022/11/28 01:22:41;;;;;;;0.00;0.00;;;;;;;4.52;100.00;98498.72;4945847;28;20226;-60
2022/11/28 01:25:07;;;;;;;0.00;0.00;;;;;;;4.47;100.00;98494.84;4946997;28;20560;-60
2022/11/28 01:27:34;;;;;;;0.10;0.10;;;;;;;4.42;100.00;98488.28;4944909;28;20289;-61
2022/11/28 01:30:02;;;;;;;0.00;0.00;;;;;;;4.43;100.00;98481.31;4946017;28;20282;-61
2022/11/28 01:32:29;;;;;;;0.00;0.00;;;;;;;4.35;100.00;98471.56;4958992;28;20238;-60
2022/11/28 01:34:56;;;;;;;0.00;0.00;;;;;;;4.33;100.00;98472.63;4947486;28;20230;-60
2022/11/28 01:37:23;;;;;;;0.00;0.00;;;;;;;4.26;100.00;98467.09;4944670;28;20371;-60
2022/11/28 01:39:49;;;;;;;0.10;0.10;;;;;;;4.25;100.00;98458.50;4948001;28;20781;-60
2022/11/28 01:42:17;;;;;;;0.10;0.10;;;;;;;4.26;100.00;98454.97;4944234;28;20249;-61
2022/11/28 01:45:13;;;;;;;0.00;0.00;;;;;;;4.23;100.00;98441.47;4948378;28;20230;-60
2022/11/28 01:47:40;;;;;;;0.00;0.00;;;;;;;4.22;100.00;98434.66;4945704;28;20293;-60
2022/11/28 01:50:08;;;;;;;0.00;0.00;;;;;;;4.22;100.00;98434.66;4948774;28;20284;-60
2022/11/28 01:52:38;;;;;;;0.10;0.10;;;;;;;4.16;100.00;98433.38;4944211;28;20337;-61
2022/11/28 01:55:06;;;;;;;0.10;0.10;;;;;;;4.17;100.00;98435.03;4946805;28;20242;-62
2022/11/28 01:57:33;;;;;;;0.00;0.00;;;;;;;4.17;100.00;98435.03;4946308;28;20241;-61
2022/11/28 02:00:07;;;;;;;0.10;0.10;;;;;;;4.18;100.00;98434.09;4950122;28;20229;-61
2022/11/28 02:02:44;;;;;;;0.10;0.10;;;;;;;4.14;100.00;98433.47;4945390;28;20244;-62
2022/11/28 02:05:11;;;;;;;0.00;0.00;;;;;;;4.19;100.00;98435.75;4948070;28;20242;-62
2022/11/28 02:07:38;;;;;;;0.10;0.10;;;;;;;4.17;100.00;98429.03;4946434;28;20289;-61
2022/11/28 02:10:08;;;;;;;0.00;0.00;;;;;;;4.19;100.00;98432.31;4949411;28;20230;-61
2022/11/28 02:12:48;;;;;;;0.10;0.10;;;;;;;4.17;100.00;98424.69;4944528;28;20281;-61
2022/11/28 02:15:41;;;;;;;0.00;0.00;;;;;;;4.17;100.00;98416.09;4942989;28;20237;-61
2022/11/28 02:18:29;;;;;;;0.00;0.00;;;;;;;4.12;100.00;98401.78;4946860;28;20238;-62
2022/11/28 02:21:21;;;;;;;0.10;0.10;;;;;;;4.14;100.00;98415.41;4943182;28;20284;-61
2022/11/28 02:24:22;;;;;;;0.00;0.00;;;;;;;4.21;100.00;98420.09;4943634;28;20230;-61
2022/11/28 02:27:04;;;;;;;0.10;0.10;;;;;;;4.18;100.00;98412.59;4944342;28;20235;-62
2022/11/28 02:30:00;;;;;;;0.10;0.10;;;;;;;4.15;100.00;98392.97;4943583;28;20226;-61
2022/11/28 02:32:42;;;;;;;0.00;0.00;;;;;;;4.10;100.00;98375.22;4941901;28;20222;-62
2022/11/28 02:35:17;;;;;;;0.00;0.00;;;;;;;4.09;100.00;98375.38;4945950;28;20235;-61
2022/11/28 02:37:50;;;;;;;0.10;0.10;;;;;;;4.11;100.00;98373.50;4943593;28;20331;-61
2022/11/28 02:40:24;;;;;;;0.00;0.00;;;;;;;4.13;100.00;98377.59;4943607;28;20226;-61
2022/11/28 02:43:03;;;;;;;0.00;0.00;;;;;;;4.16;100.00;98373.97;4945596;28;20233;-60
2022/11/28 02:45:36;;;;;;;0.03;0.03;;;;;;;4.14;100.00;98368.91;4943175;28;20382;-61
2022/11/28 02:48:07;;;;;;;0.10;0.10;;;;;;;4.09;100.00;98363.25;4945596;28;20241;-60
2022/11/28 02:50:41;;;;;;;0.10;0.10;;;;;;;4.11;100.00;98356.22;4942602;28;20239;-61
2022/11/28 02:53:12;;;;;;;0.00;0.00;;;;;;;4.09;100.00;98341.78;4945617;28;20317;-60
2022/11/28 02:55:40;;;;;;;0.00;0.00;;;;;;;4.08;100.00;98347.88;4943250;28;20702;-62
2022/11/28 02:58:07;;;;;;;0.10;0.10;;;;;;;4.12;100.00;98341.56;4945513;28;20717;-61
2022/11/28 03:00:36;;;;;;;0.10;0.10;;;;;;;4.10;100.00;98346.81;4942772;28;22324;-61
2022/11/28 03:03:19;;;;;;;0.00;0.00;;;;;;;4.10;100.00;98352.00;4946195;28;20238;-61
2022/11/28 03:05:52;;;;;;;0.07;0.07;;;;;;;4.13;100.00;98359.50;4942487;28;20594;-61
2022/11/28 03:08:33;;;;;;;0.00;0.00;;;;;;;4.14;100.00;98374.06;4942875;28;20230;-61
2022/11/28 03:11:08;;;;;;;0.10;0.10;;;;;;;4.16;100.00;98409.28;4945918;28;20234;-61
2022/11/28 03:13:40;;;;;;;0.07;0.07;;;;;;;4.09;100.00;98394.25;4942637;28;20237;-61
2022/11/28 03:16:17;;;;;;;0.00;0.00;;;;;;;4.11;100.00;98396.75;4945297;28;20243;-61
2022/11/28 03:18:59;;;;;;;0.00;0.00;;;;;;;4.07;100.00;98403.06;4943822;28;20264;-61
2022/11/28 03:21:36;;;;;;;0.00;0.00;;;;;;;3.99;100.00;98406.22;4941730;28;20235;-61
2022/11/28 03:24:10;;;;;;;0.00;0.00;;;;;;;3.96;100.00;98404.69;4946180;28;20695;-62
2022/11/28 03:26:47;;;;;;;0.00;0.00;;;;;;;3.97;100.00;98421.00;4942663;28;20293;-61
2022/11/28 03:29:20;;;;;;;0.00;0.00;;;;;;;3.95;100.00;98405.63;4934259;29;20242;-60
2022/11/28 03:31:51;;;;;;;0.00;0.00;;;;;;;3.85;100.00;98389.16;4942545;28;20304;-62
2022/11/28 03:34:22;;;;;;;0.00;0.00;;;;;;;3.81;100.00;98391.13;4942873;28;20730;-61
2022/11/28 03:36:53;;;;;;;0.00;0.00;;;;;;;3.82;100.00;98379.06;4945405;28;20587;-61
2022/11/28 03:39:25;;;;;;;0.10;0.10;;;;;;;3.79;100.00;98380.09;4943112;28;20226;-62
2022/11/28 03:41:56;;;;;;;0.00;0.00;;;;;;;3.84;100.00;98390.09;4945415;28;20690;-61
2022/11/28 03:44:27;;;;;;;0.00;0.00;;;;;;;3.83;100.00;98388.47;4942906;28;20218;-61
2022/11/28 03:46:56;;;;;;;0.00;0.00;;;;;;;3.84;100.00;98390.91;4946095;28;20230;-61
2022/11/28 03:49:30;;;;;;;0.10;0.10;;;;;;;3.76;100.00;98392.44;4944603;28;20317;-61
2022/11/28 03:52:01;;;;;;;0.00;0.00;;;;;;;3.76;100.00;98388.06;4948249;28;20234;-62
2022/11/28 03:54:32;;;;;;;0.00;0.00;;;;;;;3.74;100.00;98383.97;4945721;28;20229;-61
2022/11/28 03:57:07;;;;;;;0.10;0.10;;;;;;;3.71;100.00;98379.03;4947749;28;20223;-60
2022/11/28 03:59:36;;;;;;;0.00;0.00;;;;;;;3.72;100.00;98384.06;4946459;28;20285;-62
2022/11/28 04:04:53;;;;;;;0.03;0.03;;;;;;;3.75;100.00;98380.47;5351247;23;20977;-52
2022/11/28 04:07:26;;;;;;;0.10;0.10;;;;;;;3.73;100.00;98379.75;4928866;28;20286;-53
2022/11/28 04:10:01;;;;;;;0.00;0.00;;;;;;;3.76;100.00;98376.94;4949148;28;20294;-53
2022/11/28 04:12:37;;;;;;;0.00;0.00;;;;;;;3.73;100.00;98383.13;4945650;28;20226;-54
2022/11/28 04:15:09;;;;;;;0.00;0.00;;;;;;;3.69;100.00;98379.97;4930296;28;20234;-55
2022/11/28 04:17:38;;;;;;;0.00;0.00;;;;;;;3.69;100.00;98382.56;4923838;28;20231;-55
2022/11/28 04:20:13;;;;;;;0.00;0.00;;;;;;;3.67;100.00;98371.50;4934444;28;20226;-52
2022/11/28 04:22:45;;;;;;;0.00;0.00;;;;;;;3.71;100.00;98366.13;4928523;28;20683;-54
2022/11/28 04:25:16;;;;;;;0.00;0.00;;;;;;;3.69;100.00;98366.25;4928678;29;20279;-54
2022/11/28 04:27:48;;;;;;;0.10;0.10;;;;;;;3.68;100.00;98375.75;4932886;28;20241;-54
2022/11/28 04:33:00;;;;;;;0.00;0.00;;;;;;;3.74;100.00;98383.97;5024638;23;20237;-60
2022/11/28 04:35:33;;;;;;;0.03;0.03;;;;;;;3.80;100.00;98376.59;4964470;28;20230;-61
2022/11/28 04:38:04;;;;;;;0.00;0.00;;;;;;;3.80;100.00;98375.78;4967682;28;20244;-60
2022/11/28 04:40:33;;;;;;;0.00;0.00;;;;;;;3.78;100.00;98375.06;4964311;28;20226;-60
2022/11/28 04:43:03;;;;;;;0.10;0.10;;;;;;;3.73;100.00;98366.84;4965737;28;20273;-60
2022/11/28 04:45:33;;;;;;;0.10;0.10;;;;;;;3.71;100.00;98368.72;4964604;28;20285;-61
2022/11/28 04:48:01;;;;;;;0.00;0.00;;;;;;;3.66;100.00;98367.28;4967615;28;20702;-60
2022/11/28 04:50:34;;;;;;;0.00;0.00;;;;;;;3.66;100.00;98359.53;4963102;28;20748;-60
2022/11/28 04:53:05;;;;;;;0.10;0.10;;;;;;;3.68;100.00;98356.88;4966526;28;20308;-60
2022/11/28 04:55:39;;;;;;;0.10;0.10;;;;;;;3.69;100.00;98355.94;4965460;28;20226;-60
2022/11/28 04:58:11;;;;;;;0.00;0.00;;;;;;;3.70;100.00;98355.00;4966513;28;20233;-60
2022/11/28 05:00:38;;;;;;;0.00;0.00;;;;;;;3.69;100.00;98350.78;4963712;28;20237;-60
2022/11/28 05:03:06;;;;;;;0.10;0.10;;;;;;;3.73;100.00;98353.94;4965061;28;20226;-60
2022/11/28 05:05:43;;;;;;;0.00;0.00;;;;;;;3.76;100.00;98339.03;4963313;28;20269;-60
2022/11/28 05:08:09;;;;;;;0.00;0.00;;;;;;;3.82;100.00;98341.16;4966106;28;20237;-60
2022/11/28 05:10:36;;;;;;;0.00;0.00;;;;;;;3.81;100.00;98341.28;4963839;28;20304;-59
2022/11/28 05:13:03;;;;;;;0.00;0.00;;;;;;;3.86;100.00;98344.34;4965641;28;20284;-60
2022/11/28 05:15:29;;;;;;;0.00;0.00;;;;;;;3.88;100.00;98336.47;4963752;28;20229;-60
2022/11/28 05:17:56;;;;;;;0.03;0.03;;;;;;;3.87;100.00;98329.66;4966164;28;20230;-60
2022/11/28 05:20:23;;;;;;;0.00;0.00;;;;;;;3.84;100.00;98330.72;4964053;28;20225;-60
2022/11/28 05:22:51;;;;;;;0.10;0.10;;;;;;;3.82;100.00;98325.66;4966611;28;20649;-60
2022/11/28 05:25:17;;;;;;;0.00;0.00;;;;;;;3.83;100.00;98319.56;4963262;28;20630;-60
2022/11/28 05:27:44;;;;;;;0.00;0.00;;;;;;;3.79;100.00;98309.59;4967165;28;20705;-60
2022/11/28 05:30:12;;;;;;;0.00;0.00;;;;;;;3.78;100.00;98301.00;4966924;28;20917;-60
2022/11/28 05:32:39;;;;;;;0.00;0.00;;;;;;;3.76;100.00;98314.97;4963028;28;20241;-60
2022/11/28 05:35:05;;;;;;;0.00;0.00;;;;;;;3.80;100.00;98304.28;4966479;28;20237;-60
2022/11/28 05:37:32;;;;;;;0.00;0.00;;;;;;;3.78;100.00;98297.63;4963990;28;20229;-60
2022/11/28 05:40:04;;;;;;;0.00;0.00;;;;;;;3.78;100.00;98301.00;4966392;28;20656;-60
2022/11/28 05:42:32;;;;;;;0.00;0.00;;;;;;;3.79;100.00;98312.16;4963323;28;20231;-60
2022/11/28 05:44:59;;;;;;;0.10;0.10;;;;;;;3.80;100.00;98304.28;4966075;28;20237;-60
2022/11/28 05:47:25;;;;;;;0.07;0.07;;;;;;;3.83;100.00;98306.66;4953459;28;20226;-60
2022/11/28 05:49:52;;;;;;;0.00;0.00;;;;;;;3.89;100.00;98304.53;4951155;28;20253;-60
2022/11/28 05:52:18;;;;;;;0.00;0.00;;;;;;;3.89;100.00;98317.44;4963597;28;20225;-60
2022/11/28 05:54:45;;;;;;;0.00;0.00;;;;;;;3.89;100.00;98312.28;4966294;28;20241;-60
2022/11/28 05:57:13;;;;;;;0.00;0.00;;;;;;;3.88;100.00;98321.81;4966345;28;20217;-61
2022/11/28 05:59:39;;;;;;;0.00;0.00;;;;;;;3.89;100.00;98307.13;4963990;28;20237;-60
2022/11/28 06:02:06;;;;;;;0.00;0.00;;;;;;;4.00;100.00;98312.28;4965116;28;20284;-60
2022/11/28 06:04:32;;;;;;;0.00;0.00;;;;;;;4.05;100.00;98312.75;4961211;28;20234;-60
2022/11/28 06:06:59;;;;;;;0.00;0.00;;;;;;;4.12;100.00;98315.72;4965858;28;20230;-60
2022/11/28 06:09:25;;;;;;;0.00;0.00;;;;;;;4.18;100.00;98324.75;4963079;28;20229;-59
2022/11/28 06:11:52;;;;;;;0.00;0.00;;;;;;;4.24;100.00;98317.34;4965927;28;20233;-59
2022/11/28 06:14:20;;;;;;;0.00;0.00;;;;;;;4.39;100.00;98312.75;4962497;28;20237;-61
2022/11/28 06:16:46;;;;;;;0.00;0.00;;;;;;;4.50;100.00;98309.34;4965823;28;20867;-60
2022/11/28 06:19:13;;;;;;;0.10;0.10;;;;;;;4.78;100.00;98322.69;4965602;28;20242;-61
2022/11/28 06:21:40;;;;;;;0.00;0.00;;;;;;;4.93;100.00;98322.41;4962823;28;20236;-60
2022/11/28 06:24:07;;;;;;;0.00;0.00;;;;;;;5.03;98.84;98321.53;4965902;28;20234;-60
2022/11/28 06:26:33;;;;;;;0.00;0.00;;;;;;;5.09;97.56;98322.81;4962662;28;20509;-60
2022/11/28 06:29:02;;;;;;;0.00;0.00;;;;;;;5.11;97.92;98317.50;4965916;28;20711;-59
2022/11/28 06:31:30;;;;;;;0.00;0.00;;;;;;;5.09;98.16;98330.59;4962269;28;20233;-60
2022/11/28 06:33:58;;;;;;;0.00;0.00;;;;;;;5.07;99.15;98334.22;4965117;28;20222;-60
2022/11/28 06:36:25;;;;;;;0.00;0.00;;;;;;;5.04;98.97;98337.91;4961660;28;20233;-59
2022/11/28 06:38:51;;;;;;;0.00;0.00;;;;;;;4.97;98.29;98327.19;4965662;28;20715;-60
2022/11/28 06:41:20;;;;;;;0.07;0.07;;;;;;;4.91;98.43;98332.84;4962844;28;20690;-60
2022/11/28 06:43:46;;;;;;;0.00;0.00;;;;;;;4.89;99.17;98332.16;4965512;28;20225;-60
2022/11/28 06:46:14;;;;;;;0.03;0.03;;;;;;;4.78;98.80;98334.78;4965875;28;20229;-61
2022/11/28 06:48:41;;;;;;;0.00;0.00;;;;;;;4.75;99.66;98333.25;4963442;28;20232;-60
2022/11/28 06:51:08;;;;;;;0.00;0.00;;;;;;;4.66;100.00;98341.75;4965331;28;20309;-61
2022/11/28 06:53:35;;;;;;;0.10;0.10;;;;;;;4.57;100.00;98338.13;4962798;28;20982;-60
2022/11/28 06:56:06;;;;;;;0.07;0.07;;;;;;;4.52;100.00;98348.00;4965511;28;20261;-60
2022/11/28 06:58:33;;;;;;;0.00;0.00;;;;;;;4.40;100.00;98357.50;4962276;28;20755;-60
2022/11/28 07:01:05;;;;;;;0.00;0.00;;;;;;;4.35;100.00;98362.19;4965194;28;20238;-60
2022/11/28 07:03:32;;;;;;;0.00;0.00;;;;;;;4.30;100.00;98367.72;4953653;28;20789;-60
2022/11/28 07:06:01;;;;;;;0.10;0.10;;;;;;;4.24;100.00;98370.78;4970055;28;21143;-59
2022/11/28 07:08:27;;;;;;;0.00;0.00;;;;;;;4.24;100.00;98365.63;4962833;28;20218;-59
2022/11/28 07:10:56;;;;;;;0.00;0.00;;;;;;;4.27;100.00;98366.19;4964620;28;20622;-59
2022/11/28 07:13:22;;;;;;;0.00;0.00;;;;;;;4.22;100.00;98368.34;4961868;28;20621;-59
2022/11/28 07:15:49;;;;;;;0.10;0.10;;;;;;;4.22;100.00;98368.34;4964474;28;20218;-60
2022/11/28 07:18:16;;;;;;;0.00;0.00;;;;;;;4.18;100.00;98377.25;4961317;28;20233;-59
2022/11/28 07:20:43;;;;;;;0.10;0.10;;;;;;;4.20;100.00;98371.97;4964282;28;20233;-59
2022/11/28 07:23:11;;;;;;;0.10;0.10;;;;;;;4.20;100.00;98374.53;4964493;28;20233;-59
2022/11/28 07:25:39;;;;;;;0.10;0.10;;;;;;;4.19;100.00;98375.47;4965714;28;20774;-59
2022/11/28 07:28:06;;;;;;;0.10;0.10;;;;;;;4.18;100.00;98377.25;4968767;28;20214;-60
2022/11/28 07:30:33;;;;;;;0.00;0.00;;;;;;;4.20;100.00;98377.13;4965552;28;20233;-59
2022/11/28 07:32:59;;;;;;;0.10;0.10;;;;;;;4.21;100.00;98371.84;4967658;28;20293;-59
2022/11/28 07:35:26;;;;;;;0.10;0.10;;;;;;;4.24;100.00;98386.28;4965159;28;20237;-60
2022/11/28 07:37:52;;;;;;;0.07;0.07;;;;;;;4.25;100.00;98387.94;4968079;28;20635;-60
2022/11/28 07:40:21;;;;;;;0.00;0.00;;;;;;;4.31;100.00;98389.22;4965255;28;20442;-60
2022/11/28 07:42:48;;;;;;;0.10;0.10;;;;;;;4.32;100.00;98389.13;4968012;28;20260;-59
2022/11/28 07:45:15;;;;;;;0.00;0.00;;;;;;;4.29;100.00;98382.41;4965526;28;20276;-60
2022/11/28 07:47:42;;;;;;;0.10;0.10;;;;;;;4.33;100.00;98377.00;4967586;28;20234;-59
2022/11/28 07:50:09;;;;;;;0.00;0.00;;;;;;;4.33;100.00;98379.59;4964671;28;20706;-60
2022/11/28 07:52:36;;;;;;;0.10;0.10;;;;;;;4.35;100.00;98380.28;4963765;28;20245;-62
2022/11/28 07:55:03;;;;;;;0.00;0.00;;;;;;;4.36;100.00;98385.34;4966223;28;20241;-62
2022/11/28 07:57:31;;;;;;;0.10;0.10;;;;;;;4.40;100.00;98386.78;4963594;28;20709;-60
2022/11/28 07:59:57;;;;;;;0.00;0.00;;;;;;;4.43;100.00;98383.13;4967324;28;20238;-60
2022/11/28 08:02:31;;;;;;;0.00;0.00;;;;;;;4.45;100.00;98391.56;4964543;28;20242;-60
2022/11/28 08:04:57;;;;;;;0.07;0.07;;;;;;;4.56;100.00;98386.41;4967609;28;20229;-59
2022/11/28 08:07:24;;;;;;;0.00;0.00;;;;;;;4.60;100.00;98373.25;4965572;28;20226;-59
2022/11/28 08:09:50;;;;;;;0.03;0.03;;;;;;;4.66;100.00;98372.75;4968304;28;20237;-60
2022/11/28 08:12:17;;;;;;;0.00;0.00;;;;;;;4.73;100.00;98367.00;4964131;28;20248;-60
2022/11/28 08:14:45;;;;;;;0.10;0.10;;;;;;;4.78;100.00;98364.06;4964835;28;20233;-60
2022/11/28 08:17:12;;;;;;;0.10;0.10;;;;;;;4.90;100.00;98367.44;4966750;28;20798;-59
2022/11/28 08:19:38;;;;;;;0.00;0.00;;;;;;;4.98;100.00;98364.25;4964053;28;20248;-59
2022/11/28 08:22:05;;;;;;;0.00;0.00;;;;;;;5.03;100.00;98362.94;4956271;28;20328;-60
2022/11/28 08:24:31;;;;;;;0.00;0.00;;;;;;;5.10;100.00;98354.69;4962200;28;20233;-59
2022/11/28 08:26:58;;;;;;;0.00;0.00;;;;;;;5.13;100.00;98351.84;4964738;28;20242;-60
2022/11/28 08:29:24;;;;;;;0.07;0.07;;;;;;;5.17;100.00;98356.66;4963175;28;20232;-61
2022/11/28 08:31:52;;;;;;;0.07;0.07;;;;;;;5.27;100.00;98348.16;4964803;28;20240;-61
2022/11/28 08:34:22;;;;;;;0.10;0.10;;;;;;;5.35;100.00;98356.09;4963463;28;20246;-60
2022/11/28 08:36:49;;;;;;;0.00;0.00;;;;;;;5.51;100.00;98357.47;4966230;28;20241;-59
2022/11/28 08:39:15;;;;;;;0.10;0.10;;;;;;;5.73;100.00;98356.53;4962151;28;20300;-60
2022/11/28 08:41:43;;;;;;;0.10;0.10;;;;;;;5.87;100.00;98361.38;4966137;28;20238;-60
2022/11/28 08:44:12;;;;;;;0.00;0.00;;;;;;;6.13;99.11;98366.19;4966374;28;20222;-60
2022/11/28 08:46:39;;;;;;;0.00;0.00;;;;;;;6.18;98.20;98368.41;4963499;28;20280;-60
2022/11/28 08:49:07;;;;;;;0.00;0.00;;;;;;;6.29;99.03;98370.09;4968038;28;20292;-59
2022/11/28 08:51:33;;;;;;;0.00;0.00;;;;;;;6.44;99.84;98373.13;4964566;28;20645;-60
2022/11/28 08:54:00;;;;;;;0.00;0.00;;;;;;;6.47;99.36;98367.69;4967255;28;20241;-60
2022/11/28 08:56:27;;;;;;;0.00;0.00;;;;;;;6.58;97.90;98365.00;4964473;28;20236;-61
2022/11/28 08:58:54;;;;;;;0.10;0.10;;;;;;;6.64;97.19;98371.44;4967363;28;20706;-60
2022/11/28 09:01:22;;;;;;;0.00;0.00;;;;;;;6.68;96.41;98369.41;4963984;28;20237;-60
2022/11/28 09:03:50;;;;;;;0.00;0.00;;;;;;;6.71;97.91;98371.72;4966749;28;20234;-60
2022/11/28 09:06:21;;;;;;;0.00;0.00;;;;;;;6.76;96.91;98377.34;4964520;28;20222;-60
2022/11/28 09:08:48;;;;;;;0.00;0.00;;;;;;;6.78;95.73;98385.81;4966796;28;20284;-60
2022/11/28 09:11:17;;;;;;;0.00;0.00;;;;;;;6.86;92.39;98383.38;4964400;28;20230;-60
2022/11/28 09:13:44;;;;;;;0.00;0.00;;;;;;;6.69;92.46;98395.22;4966816;28;20301;-60
2022/11/28 09:16:11;;;;;;;0.00;0.00;;;;;;;6.48;92.74;98403.88;4967047;28;20230;-60
2022/11/28 09:18:38;;;;;;;0.10;0.10;;;;;;;6.45;94.59;98396.34;4963914;28;20772;-60
2022/11/28 09:21:08;;;;;;;0.00;0.00;;;;;;;6.46;93.91;98398.00;4966933;28;20249;-59
2022/11/28 09:23:37;;;;;;;0.00;0.00;;;;;;;6.47;93.24;98385.84;4964158;28;20245;-59
2022/11/28 09:26:08;;;;;;;0.00;0.00;;;;;;;6.49;92.16;98394.31;4966673;28;20233;-59
2022/11/28 09:28:35;;;;;;;0.00;0.00;;;;;;;6.46;92.02;98399.75;4964088;28;20233;-59
2022/11/28 09:31:01;;;;;;;0.03;0.03;;;;;;;6.22;92.28;98390.53;4966326;28;20718;-60
2022/11/28 09:33:28;;;;;;;0.00;0.00;;;;;;;6.24;93.98;98388.63;4963486;28;20230;-59
2022/11/28 09:35:55;;;;;;;0.00;0.00;;;;;;;6.33;95.16;98393.03;4966738;28;20230;-60
2022/11/28 09:38:21;;;;;;;0.00;0.00;;;;;;;6.32;94.08;98388.81;4963758;28;20226;-59
2022/11/28 09:40:51;;;;;;;0.00;0.00;;;;;;;6.34;96.17;98399.03;4966404;28;20958;-60
2022/11/28 09:43:26;;;;;;;0.00;0.00;;;;;;;6.23;95.34;98402.53;4963334;28;20708;-60
2022/11/28 09:45:55;;;;;;;0.00;0.00;;;;;;;6.30;96.28;98397.66;4965595;28;20236;-60
2022/11/28 09:48:28;;;;;;;0.00;0.00;;;;;;;6.33;95.90;98407.75;4961927;28;20233;-60
2022/11/28 09:51:00;;;;;;;0.00;0.00;;;;;;;6.34;95.45;98399.03;4966035;28;20320;-60
2022/11/28 09:53:34;;;;;;;0.00;0.00;;;;;;;6.43;95.10;98393.06;4963003;28;20317;-60
2022/11/28 09:56:09;;;;;;;0.00;0.00;;;;;;;6.47;94.26;98384.09;4966346;28;20712;-60
2022/11/28 09:58:45;;;;;;;0.00;0.00;;;;;;;6.60;95.81;98393.41;4963586;28;20715;-60
2022/11/28 10:01:17;;;;;;;0.00;0.00;;;;;;;6.66;96.55;98395.47;4966201;28;20240;-59
2022/11/28 10:03:53;;;;;;;0.00;0.00;;;;;;;6.74;98.38;98393.06;4962077;28;20249;-60
2022/11/28 10:06:24;;;;;;;0.00;0.00;;;;;;;6.73;97.10;98377.59;4961716;28;20292;-60
2022/11/28 10:09:04;;;;;;;0.00;0.00;;;;;;;6.86;98.38;98385.97;4952955;28;20229;-59
2022/11/28 10:11:44;;;;;;;0.00;0.00;;;;;;;6.92;97.75;98377.66;4949741;28;20248;-59
2022/11/28 10:14:39;;;;;;;0.10;0.10;;;;;;;7.03;97.01;98381.09;4962166;28;20223;-59
2022/11/28 10:17:18;;;;;;;0.00;0.00;;;;;;;7.09;97.42;98376.16;4961522;28;20244;-59
2022/11/28 10:19:50;;;;;;;0.10;0.10;;;;;;;7.27;96.02;98382.50;4948455;28;20229;-59
2022/11/28 10:22:20;;;;;;;0.00;0.00;;;;;;;7.23;96.72;98372.38;4963004;28;20226;-59
2022/11/28 10:24:51;;;;;;;0.00;0.00;;;;;;;7.31;95.60;98381.25;4965628;28;20234;-59
2022/11/28 10:27:21;;;;;;;0.00;0.00;;;;;;;7.44;94.80;98370.59;4962651;28;20253;-59
2022/11/28 10:29:52;;;;;;;0.00;0.00;;;;;;;7.50;94.86;98376.03;4965745;28;20226;-59
2022/11/28 10:32:21;;;;;;;0.00;0.00;;;;;;;7.57;95.69;98367.72;4962940;28;20238;-59
2022/11/28 10:34:57;;;;;;;0.00;0.00;;;;;;;7.61;96.11;98367.31;4964877;28;20642;-59
2022/11/28 10:37:26;;;;;;;0.03;0.03;;;;;;;7.71;97.12;98369.88;4962717;28;20241;-59
2022/11/28 10:39:54;;;;;;;0.00;0.00;;;;;;;7.80;97.93;98379.44;4965578;28;20716;-60
2022/11/28 10:42:28;;;;;;;0.00;0.00;;;;;;;7.75;94.96;98373.84;4962748;28;20229;-59
2022/11/28 10:45:18;;;;;;;0.00;0.00;;;;;;;7.68;94.71;98371.00;4965561;28;20241;-59
2022/11/28 10:48:05;;;;;;;0.00;0.00;;;;;;;7.76;95.11;98369.47;4963372;28;20302;-59
2022/11/28 10:50:40;;;;;;;0.00;0.00;;;;;;;7.70;95.24;98360.44;4962720;28;20238;-58
2022/11/28 10:53:13;;;;;;;0.00;0.00;;;;;;;7.74;95.25;98361.81;4965594;28;20241;-59
2022/11/28 10:55:46;;;;;;;0.00;0.00;;;;;;;7.74;96.12;98359.22;4961633;28;20233;-59
2022/11/28 10:58:21;;;;;;;0.00;0.00;;;;;;;7.76;96.11;98367.69;4965377;28;20318;-59
2022/11/28 11:00:49;;;;;;;0.00;0.00;;;;;;;7.78;97.80;98354.56;4966183;28;20248;-59
2022/11/28 11:03:18;;;;;;;0.00;0.00;;;;;;;7.78;99.01;98351.97;4965949;28;20222;-59
2022/11/28 11:05:45;;;;;;;0.00;0.00;;;;;;;7.83;100.00;98358.38;4968426;28;20237;-59
2022/11/28 11:08:19;;;;;;;0.00;0.00;;;;;;;7.84;100.00;98354.03;4969391;28;20324;-59
2022/11/28 11:10:50;;;;;;;0.00;0.00;;;;;;;7.87;100.00;98351.13;4965595;28;20341;-59
2022/11/28 11:13:20;;;;;;;0.00;0.00;;;;;;;7.88;100.00;98349.34;4966193;28;20714;-59
2022/11/28 11:15:51;;;;;;;0.00;0.00;;;;;;;7.93;100.00;98342.78;4969375;28;20240;-60
2022/11/28 11:18:22;;;;;;;0.00;0.00;;;;;;;7.96;100.00;98339.88;4966119;28;20239;-60
2022/11/28 11:20:49;;;;;;;0.00;0.00;;;;;;;8.06;100.00;98339.88;4969335;28;20234;-59
2022/11/28 11:23:17;;;;;;;0.00;0.00;;;;;;;8.19;100.00;98336.13;4965709;28;20226;-59
2022/11/28 11:25:53;;;;;;;0.00;0.00;;;;;;;8.38;99.85;98332.63;4968861;28;20240;-59
2022/11/28 11:28:37;;;;;;;0.00;0.00;;;;;;;8.50;99.43;98331.50;4965205;28;20807;-59
2022/11/28 11:31:14;;;;;;;0.00;0.00;;;;;;;8.70;99.44;98328.78;4967995;28;20769;-59
2022/11/28 11:33:44;;;;;;;0.00;0.00;;;;;;;8.87;97.75;98324.56;4965950;28;20252;-59
2022/11/28 11:36:22;;;;;;;0.00;0.00;;;;;;;9.11;98.09;98321.38;4968670;28;20232;-59
2022/11/28 11:38:49;;;;;;;0.00;0.00;;;;;;;9.18;98.25;98312.97;4966214;28;20225;-59
2022/11/28 11:41:28;;;;;;;0.00;0.00;;;;;;;9.37;97.82;98314.59;4965466;28;20230;-59
2022/11/28 11:44:17;;;;;;;0.00;0.00;;;;;;;9.52;96.20;98307.88;4967686;28;20249;-59
2022/11/28 11:46:50;;;;;;;0.00;0.00;;;;;;;9.61;94.46;98298.31;4964638;28;20245;-59
2022/11/28 11:49:29;;;;;;;0.00;0.00;;;;;;;9.70;96.20;98292.19;4966190;28;20238;-59
2022/11/28 11:51:56;;;;;;;0.00;0.00;;;;;;;9.79;94.96;98294.84;4968630;28;20240;-60
2022/11/28 11:54:23;;;;;;;0.00;0.00;;;;;;;9.87;96.94;98295.72;4963829;28;20231;-59
2022/11/28 11:56:50;;;;;;;0.00;0.00;;;;;;;9.92;97.13;98291.81;4968515;28;20227;-58